Etusivu
METAR-TAF:

METAR-TAF

Lentoasemat :

Komatsujima, Japani

Leveyspiiri: 34-00N, Pituuspiiri: 134-38E, korkeus merenpinnasta: 3 m

Tämänhetkinen sää

Tämä raportti tehtiin 12 tuntia ja 44 minuuttia sitten, kello 01.38 UTC
Tuuli 2 kn eri suunnista
Lämpötila 19°C
Kosteus 94%
Ilmanpaine 1005 hPa
Näkyvyys: 5000 m
Hajanaisia pilviä 500 ft:n korkeudessa
Hajanaisia pilviä 1500 ft:n korkeudessa
Hajonneita pilviä 3000 ft:n korkeudessa
utua

METAR: RJOP 250138Z VRB02KT 5000 BR SCT005 SCT015 BKN030 19/18 Q1005 RMK 3ST005 3CU015 7CU030 A2969

Aika: 23:22 (14:22 UTC)


TAF: puuttuu

Säähavainnot ja -ennusteet yli 4000 lentoasemalta (METAR- ja TAF-raportit).

Käytössä olevat sääasemat on merkitty karttaan keltaisilla ja punaisilla pisteillä.

Aseta hiiri pisteen päälle nähdäksesi sääaseman nimen.

Klikkaa sitten nähdäksesi säähavainnot ja -ennusteet.

Kartan vaihtaminen: klikkaa mustalla rastilla varustettuja vihreitä pisteitä, niin voit zoomata sisään; viivalla varustettua vihreää pistettä, niin voit zoomata ulos tai vihreitä nuolia, niin pääset viereisille kartoille.


METAR-TAF: